»·PEaware :: PHXA24 KLAS-KSNA

PHXA24 :: KLAS-KSNA

FLIGHT INFORMATION

Flight Status: Arrived
Operator: Unknown
More flights by this operator :: More flights under this callsign
Pilot: Andrew W. (18069)
Aircraft: Unknown
(VIPJ)
More flights by this aircraft type
Origin: KLAS McCarran Intl
United States
Destination: KSNA John Wayne-Orange Co
United States
More flights between these airports :: More routes between these airports
Route: +BOACH8 HEC HEC KAYOH7
File this flight plan on PilotEdge
Remarks:
Altitude:
(Current/Filed)
26,000ft
Speed:
(Current/Filed)
498kts
Departed: 26-Mar-20 08:53 AM
Arrived: 26-Mar-20 09:36 AM
Distance/Time
Traveled:
197nm/0:43
Distance/Time
To Go:
Arrived

Flight Plot

Page will automatically refresh every two minutes.

Flight plan parsing failed; only flown route is shown


Map Options




Map Legend


Flown Route
Filed Route
Departure Airport
Arrival Airport
Navaid (VOR, NDB)
Fix

Horizontal Profiles

Position Reports

Time Latitude Longitude Heading Altitude Ground
Speed
26-Mar-20 08:37 36.083667 -115.169975 89 2185ft 0kts
26-Mar-20 08:38 36.083667 -115.169975 89 2185ft 0kts
26-Mar-20 08:39 36.083667 -115.169975 89 2185ft 0kts
26-Mar-20 08:40 36.083667 -115.169975 89 2185ft 0kts
26-Mar-20 08:41 36.083667 -115.169975 89 2185ft 0kts
26-Mar-20 08:42 36.083667 -115.169975 89 2185ft 0kts
26-Mar-20 08:43 36.083219 -115.169743 174 2185ft 7kts
26-Mar-20 08:44 36.081752 -115.169135 57 2185ft 9kts
26-Mar-20 08:45 36.083794 -115.167920 24 2185ft 10kts
26-Mar-20 08:46 36.087438 -115.165836 24 2185ft 16kts
26-Mar-20 08:47 36.091305 -115.163625 24 2185ft 14kts
26-Mar-20 08:48 36.095460 -115.161246 24 2185ft 18kts
26-Mar-20 08:49 36.099622 -115.158395 69 2185ft 11kts
26-Mar-20 08:50 36.099847 -115.157541 84 2185ft 0kts
26-Mar-20 08:51 36.099109 -115.156769 205 2185ft 7kts
26-Mar-20 08:52 36.074013 -115.171053 205 3584ft 144kts
26-Mar-20 08:53 36.028362 -115.197205 204 5505ft 225kts
26-Mar-20 08:54 35.987799 -115.264826 241 6473ft 268kts
26-Mar-20 08:55 35.928025 -115.306786 185 7612ft 270kts
26-Mar-20 08:56 35.852752 -115.314725 175 9087ft 278kts
26-Mar-20 08:57 35.774846 -115.305685 174 10956ft 306kts
26-Mar-20 08:58 35.679416 -115.301913 198 12833ft 381kts
26-Mar-20 08:59 35.602617 -115.396887 227 13026ft 406kts
26-Mar-20 09:00 35.524605 -115.501281 227 15691ft 421kts
26-Mar-20 09:01 35.444063 -115.609086 227 17963ft 435kts
26-Mar-20 09:02 35.362185 -115.718326 227 19860ft 447kts
26-Mar-20 09:03 35.277459 -115.830996 227 22099ft 444kts
26-Mar-20 09:04 35.192926 -115.943038 227 23678ft 455kts
26-Mar-20 09:05 35.110841 -116.051482 227 25818ft 431kts
26-Mar-20 09:06 35.028890 -116.159405 227 26261ft 440kts
26-Mar-20 09:07 34.944570 -116.270092 227 26254ft 450kts
26-Mar-20 09:08 34.860530 -116.380051 227 25701ft 435kts
26-Mar-20 09:09 34.778081 -116.486298 225 24641ft 428kts
26-Mar-20 09:10 34.696012 -116.587311 225 24254ft 415kts
26-Mar-20 09:11 34.614574 -116.687274 225 23768ft 418kts
26-Mar-20 09:12 34.532479 -116.787744 225 21675ft 421kts
26-Mar-20 09:13 34.451015 -116.887146 225 19183ft 410kts
26-Mar-20 09:14 34.371973 -116.983315 225 16679ft 398kts
26-Mar-20 09:15 34.294833 -117.076907 225 14185ft 390kts
26-Mar-20 09:16 34.200962 -117.122498 187 13140ft 355kts
26-Mar-20 09:17 34.118582 -117.164568 220 12720ft 318kts
26-Mar-20 09:18 34.051056 -117.231786 219 12170ft 306kts
26-Mar-20 09:19 33.986777 -117.294958 219 11293ft 291kts
26-Mar-20 09:20 33.925345 -117.355192 219 10275ft 276kts
26-Mar-20 09:21 33.867350 -117.411947 219 9252ft 262kts
26-Mar-20 09:22 33.812381 -117.465650 219 8370ft 242kts
26-Mar-20 09:23 33.779971 -117.522831 269 8153ft 195kts
26-Mar-20 09:24 33.780270 -117.581720 271 8142ft 157kts
26-Mar-20 09:25 33.801813 -117.628889 302 7269ft 169kts
26-Mar-20 09:26 33.826761 -117.677118 301 5981ft 160kts
26-Mar-20 09:27 33.849069 -117.720230 301 4417ft 148kts
26-Mar-20 09:28 33.851075 -117.760060 211 3153ft 128kts
26-Mar-20 09:30 33.819475 -117.783325 211 3175ft 148kts
26-Mar-20 09:31 33.785194 -117.801802 186 3139ft 118kts
26-Mar-20 09:32 33.754185 -117.819059 207 2354ft 141kts
26-Mar-20 09:33 33.720188 -117.840634 207 948ft 134kts
26-Mar-20 09:34 33.694977 -117.856629 207 393ft 94kts
26-Mar-20 09:35 33.673199 -117.870421 207 60ft 63kts
26-Mar-20 09:36 33.669260 -117.870783 42 60ft 7kts
26-Mar-20 09:37 33.671701 -117.868389 32 60ft 8kts
26-Mar-20 09:38 33.672129 -117.866928 117 60ft 5kts
26-Mar-20 09:39 33.671771 -117.866914 208 60ft 0kts
26-Mar-20 09:40 33.671771 -117.866914 208 60ft 0kts
26-Mar-20 09:41 33.671771 -117.866914 208 60ft 0kts
26-Mar-20 09:42 33.671771 -117.866914 208 60ft 0kts
26-Mar-20 09:43 33.671771 -117.866914 208 60ft 0kts
26-Mar-20 09:44 33.671771 -117.866914 208 60ft 0kts
26-Mar-20 09:45 33.671771 -117.866914 208 60ft 0kts
26-Mar-20 09:46 33.671771 -117.866914 208 60ft 0kts
26-Mar-20 09:46 33.671771 -117.866914 208 60ft 0kts
26-Mar-20 09:48 33.671771 -117.866914 208 60ft 0kts
26-Mar-20 09:49 33.671771 -117.866914 208 60ft 0kts
26-Mar-20 09:50 33.671771 -117.866914 208 60ft 0kts

Navigation Log

Ident Type
Flight plan parsing failed, navigation log unavailable